Watertown, SD

10:30 AM CDT on May 25, 2015 (GMT -0500)
Watertown Municipal | | Change Station
CLOSE
Current Station
Airport
Location: Watertown,
Elevation: 1749 ft
Nearby Weather Stations

Elev 1749 ft 44.90 °N, 97.15 °W | Updated 18 minutes ago

Overcast
Overcast
59 °F
Feels Like 59 °F
N
8
Wind Variable Wind from NNW

Today
High -- | Low -- °F
--% Chance of Precip.
Yesterday
High -- | Low -- °F
Precip. -- in
5:50 AM 9:01 PM
Waxing Crescent, 49% visible
Pressure 29.72 in
Visibility 10.0 miles
Clouds Few 800 ft
Overcast 1500 ft
Dew Point 55 °F
Humidity 87%
Rainfall 0.31 in
Snow Depth Not available.
UV 2 out of 12
Pollen 5.30 out of 12
Air Quality Not available.
Flu Activity Sporadic
SPECI KATY 251512Z AUTO 33007KT 10SM FEW008 OVC015 15/13 A2972 RMK AO2 T01500128 TSNO

More Conditions Fewer Conditions

Pressure 29.72 in
Visibility 10.0 miles
Clouds Few 800 ft
Overcast 1500 ft
Dew Point 55 °F
Humidity 87%
Rainfall 0.31 in
Snow Depth Not available.
UV 2 out of 12
Pollen 5.30 out of 12
Air Quality Not available.
Flu Activity Sporadic
SPECI KATY 251512Z AUTO 33007KT 10SM FEW008 OVC015 15/13 A2972 RMK AO2 T01500128 TSNO

More Conditions Fewer Conditions

10-Day Weather Forecast

Almanac

Astronomy

May. 25, 2015 Rise Set
Actual Time
Civil Twilight
Nautical Twilight
Astronomical Twilight
Moon
Length of Visible Light
Length of Day
Tomorrow will be .
, % of the Moon is Illuminated

Today's Extremes

State Highs State Lows

Community

WunderPhotos

Upload Photos

1,824,030 photos uploaded!

WunderBlogs® & News

Nearby

Air Quality

  Air Quality AQ Index Pollutant
Not available.

Snow Depth

Station Depth Elevation

Earthquake Activity

City Distance Mag. Time & Date
Minimum magnitude displayed is 2.5.

Coastal Water Temperatures

Place Temperature

Stations

Nearby Weather Stations

Station Location Temp. Windchill Dew Point Humidity Wind Precip. Elev Updated Type